sensor_id;sensor_type;location;lat;lon;timestamp;pressure;altitude;pressure_sealevel;temperature;humidity
8641;BME280;4358;42.100;25.222;2023-02-23T00:01:15;100058.63;;;8.53;100.00
8641;BME280;4358;42.100;25.222;2023-02-23T00:03:42;100054.06;;;8.55;100.00
8641;BME280;4358;42.100;25.222;2023-02-23T00:06:10;100063.72;;;8.56;100.00
8641;BME280;4358;42.100;25.222;2023-02-23T00:08:38;100053.94;;;8.58;100.00
8641;BME280;4358;42.100;25.222;2023-02-23T00:11:07;100061.84;;;8.58;100.00
8641;BME280;4358;42.100;25.222;2023-02-23T00:13:34;100062.72;;;8.42;100.00
8641;BME280;4358;42.100;25.222;2023-02-23T00:16:06;100059.28;;;8.40;100.00
8641;BME280;4358;42.100;25.222;2023-02-23T00:18:34;100065.19;;;8.45;100.00
8641;BME280;4358;42.100;25.222;2023-02-23T00:21:13;100060.47;;;8.50;100.00
8641;BME280;4358;42.100;25.222;2023-02-23T00:23:42;100068.25;;;8.54;100.00
8641;BME280;4358;42.100;25.222;2023-02-23T00:26:09;100064.31;;;8.45;100.00
8641;BME280;4358;42.100;25.222;2023-02-23T00:28:39;100067.56;;;8.50;100.00
8641;BME280;4358;42.100;25.222;2023-02-23T00:31:08;100065.78;;;8.50;100.00
8641;BME280;4358;42.100;25.222;2023-02-23T00:33:37;100069.88;;;8.56;100.00
8641;BME280;4358;42.100;25.222;2023-02-23T00:36:06;100076.16;;;8.54;100.00
8641;BME280;4358;42.100;25.222;2023-02-23T00:38:34;100073.31;;;8.42;100.00
8641;BME280;4358;42.100;25.222;2023-02-23T00:41:05;100073.03;;;8.47;100.00
8641;BME280;4358;42.100;25.222;2023-02-23T00:43:34;100073.97;;;8.46;100.00
8641;BME280;4358;42.100;25.222;2023-02-23T00:46:01;100071.25;;;8.47;100.00
8641;BME280;4358;42.100;25.222;2023-02-23T00:48:31;100068.84;;;8.43;100.00
8641;BME280;4358;42.100;25.222;2023-02-23T00:51:00;100066.44;;;8.38;100.00
8641;BME280;4358;42.100;25.222;2023-02-23T00:53:28;100073.78;;;8.33;100.00
8641;BME280;4358;42.100;25.222;2023-02-23T00:55:54;100072.22;;;8.29;100.00
8641;BME280;4358;42.100;25.222;2023-02-23T00:58:22;100063.25;;;8.16;100.00
8641;BME280;4358;42.100;25.222;2023-02-23T01:00:49;100056.59;;;8.09;100.00
8641;BME280;4358;42.100;25.222;2023-02-23T01:03:16;100070.81;;;8.06;100.00
8641;BME280;4358;42.100;25.222;2023-02-23T01:05:43;100074.03;;;7.96;100.00
8641;BME280;4358;42.100;25.222;2023-02-23T01:08:11;100066.53;;;7.88;100.00
8641;BME280;4358;42.100;25.222;2023-02-23T01:10:41;100069.00;;;7.91;100.00
8641;BME280;4358;42.100;25.222;2023-02-23T01:13:09;100070.78;;;7.91;100.00
8641;BME280;4358;42.100;25.222;2023-02-23T01:15:40;100070.97;;;7.88;100.00
8641;BME280;4358;42.100;25.222;2023-02-23T01:18:08;100068.50;;;7.85;100.00
8641;BME280;4358;42.100;25.222;2023-02-23T01:20:36;100071.13;;;7.85;100.00
8641;BME280;4358;42.100;25.222;2023-02-23T01:23:06;100065.13;;;7.81;100.00
8641;BME280;4358;42.100;25.222;2023-02-23T01:25:35;100066.19;;;7.79;100.00
8641;BME280;4358;42.100;25.222;2023-02-23T01:28:03;100061.34;;;7.70;100.00
8641;BME280;4358;42.100;25.222;2023-02-23T01:30:30;100068.84;;;7.61;100.00
8641;BME280;4358;42.100;25.222;2023-02-23T01:32:56;100069.84;;;7.59;100.00
8641;BME280;4358;42.100;25.222;2023-02-23T01:35:23;100072.56;;;7.57;100.00
8641;BME280;4358;42.100;25.222;2023-02-23T01:37:50;100073.34;;;7.59;100.00
8641;BME280;4358;42.100;25.222;2023-02-23T01:40:19;100074.13;;;7.61;100.00
8641;BME280;4358;42.100;25.222;2023-02-23T01:42:55;100075.66;;;7.65;100.00
8641;BME280;4358;42.100;25.222;2023-02-23T01:45:28;100076.94;;;7.58;100.00
8641;BME280;4358;42.100;25.222;2023-02-23T01:47:58;100078.16;;;7.51;100.00
8641;BME280;4358;42.100;25.222;2023-02-23T01:50:34;100076.63;;;7.47;100.00
8641;BME280;4358;42.100;25.222;2023-02-23T01:53:02;100084.78;;;7.43;100.00
8641;BME280;4358;42.100;25.222;2023-02-23T01:55:30;100086.47;;;7.44;100.00
8641;BME280;4358;42.100;25.222;2023-02-23T01:58:03;100087.44;;;7.43;100.00
8641;BME280;4358;42.100;25.222;2023-02-23T02:00:31;100075.63;;;7.33;100.00
8641;BME280;4358;42.100;25.222;2023-02-23T02:03:03;100065.13;;;7.31;100.00
8641;BME280;4358;42.100;25.222;2023-02-23T02:05:34;100076.16;;;7.39;100.00
8641;BME280;4358;42.100;25.222;2023-02-23T02:08:05;100088.41;;;7.23;100.00
8641;BME280;4358;42.100;25.222;2023-02-23T02:10:36;100082.19;;;6.90;100.00
8641;BME280;4358;42.100;25.222;2023-02-23T02:13:13;100092.53;;;6.94;100.00
8641;BME280;4358;42.100;25.222;2023-02-23T02:18:45;100100.78;;;6.87;100.00
8641;BME280;4358;42.100;25.222;2023-02-23T02:24:41;100100.56;;;6.55;100.00
8641;BME280;4358;42.100;25.222;2023-02-23T02:27:33;100104.56;;;6.45;100.00
8641;BME280;4358;42.100;25.222;2023-02-23T02:30:28;100101.00;;;6.46;100.00
8641;BME280;4358;42.100;25.222;2023-02-23T02:36:13;100098.63;;;6.40;100.00
8641;BME280;4358;42.100;25.222;2023-02-23T02:38:52;100105.16;;;6.33;100.00
8641;BME280;4358;42.100;25.222;2023-02-23T02:41:27;100103.44;;;6.32;100.00
8641;BME280;4358;42.100;25.222;2023-02-23T02:44:08;100104.50;;;6.28;100.00
8641;BME280;4358;42.100;25.222;2023-02-23T02:46:38;100103.56;;;6.29;100.00
8641;BME280;4358;42.100;25.222;2023-02-23T02:49:10;100112.25;;;6.31;100.00
8641;BME280;4358;42.100;25.222;2023-02-23T02:51:45;100114.84;;;6.32;100.00
8641;BME280;4358;42.100;25.222;2023-02-23T02:54:22;100117.38;;;6.34;100.00
8641;BME280;4358;42.100;25.222;2023-02-23T02:56:52;100107.84;;;6.31;100.00
8641;BME280;4358;42.100;25.222;2023-02-23T02:59:22;100118.16;;;6.36;100.00
8641;BME280;4358;42.100;25.222;2023-02-23T03:02:14;100119.78;;;6.38;100.00
8641;BME280;4358;42.100;25.222;2023-02-23T03:04:59;100119.16;;;6.33;100.00
8641;BME280;4358;42.100;25.222;2023-02-23T03:07:49;100119.16;;;6.33;100.00
8641;BME280;4358;42.100;25.222;2023-02-23T03:10:43;100124.50;;;6.32;100.00
8641;BME280;4358;42.100;25.222;2023-02-23T03:13:37;100130.88;;;6.28;100.00
8641;BME280;4358;42.100;25.222;2023-02-23T03:16:34;100129.25;;;6.05;100.00
8641;BME280;4358;42.100;25.222;2023-02-23T03:19:24;100126.19;;;5.95;100.00
8641;BME280;4358;42.100;25.222;2023-02-23T03:22:15;100129.25;;;5.85;100.00
8641;BME280;4358;42.100;25.222;2023-02-23T03:25:05;100130.03;;;5.67;100.00
8641;BME280;4358;42.100;25.222;2023-02-23T03:27:57;100129.34;;;5.63;100.00
8641;BME280;4358;42.100;25.222;2023-02-23T03:30:50;100131.16;;;5.61;100.00
8641;BME280;4358;42.100;25.222;2023-02-23T03:33:43;100138.53;;;5.53;100.00
8641;BME280;4358;42.100;25.222;2023-02-23T03:36:32;100126.41;;;5.29;100.00
8641;BME280;4358;42.100;25.222;2023-02-23T03:39:23;100130.63;;;5.33;100.00
8641;BME280;4358;42.100;25.222;2023-02-23T03:42:15;100141.88;;;5.36;100.00
8641;BME280;4358;42.100;25.222;2023-02-23T03:45:04;100134.03;;;5.35;100.00
8641;BME280;4358;42.100;25.222;2023-02-23T03:47:52;100139.84;;;5.23;100.00
8641;BME280;4358;42.100;25.222;2023-02-23T03:50:42;100144.25;;;5.22;100.00
8641;BME280;4358;42.100;25.222;2023-02-23T03:53:32;100147.59;;;5.26;100.00
8641;BME280;4358;42.100;25.222;2023-02-23T03:56:20;100150.47;;;5.20;100.00
8641;BME280;4358;42.100;25.222;2023-02-23T03:59:07;100149.63;;;5.19;100.00
8641;BME280;4358;42.100;25.222;2023-02-23T04:01:57;100149.38;;;5.25;100.00
8641;BME280;4358;42.100;25.222;2023-02-23T04:04:43;100149.41;;;5.24;100.00
8641;BME280;4358;42.100;25.222;2023-02-23T04:07:30;100140.19;;;5.13;100.00
8641;BME280;4358;42.100;25.222;2023-02-23T04:10:15;100142.53;;;5.21;100.00
8641;BME280;4358;42.100;25.222;2023-02-23T04:13:02;100140.63;;;5.25;100.00
8641;BME280;4358;42.100;25.222;2023-02-23T04:15:46;100134.16;;;5.11;100.00
8641;BME280;4358;42.100;25.222;2023-02-23T04:18:17;100124.69;;;5.07;100.00
8641;BME280;4358;42.100;25.222;2023-02-23T04:20:46;100143.50;;;5.19;100.00
8641;BME280;4358;42.100;25.222;2023-02-23T04:23:13;100137.50;;;5.15;100.00
8641;BME280;4358;42.100;25.222;2023-02-23T04:25:40;100139.28;;;5.15;100.00
8641;BME280;4358;42.100;25.222;2023-02-23T04:28:06;100120.09;;;5.13;100.00
8641;BME280;4358;42.100;25.222;2023-02-23T04:30:33;100131.13;;;5.21;100.00
8641;BME280;4358;42.100;25.222;2023-02-23T04:33:00;100132.44;;;5.10;100.00
8641;BME280;4358;42.100;25.222;2023-02-23T04:35:28;100138.75;;;5.06;100.00
8641;BME280;4358;42.100;25.222;2023-02-23T04:37:56;100138.44;;;4.92;100.00
8641;BME280;4358;42.100;25.222;2023-02-23T04:40:23;100147.16;;;4.71;100.00
8641;BME280;4358;42.100;25.222;2023-02-23T04:42:50;100146.44;;;4.67;100.00
8641;BME280;4358;42.100;25.222;2023-02-23T04:45:17;100146.81;;;4.58;100.00
8641;BME280;4358;42.100;25.222;2023-02-23T04:47:44;100136.56;;;4.51;100.00
8641;BME280;4358;42.100;25.222;2023-02-23T04:50:11;100146.41;;;4.46;100.00
8641;BME280;4358;42.100;25.222;2023-02-23T04:52:39;100149.63;;;4.31;100.00
8641;BME280;4358;42.100;25.222;2023-02-23T04:55:08;100142.09;;;4.21;100.00
8641;BME280;4358;42.100;25.222;2023-02-23T04:57:40;100154.75;;;4.10;100.00
8641;BME280;4358;42.100;25.222;2023-02-23T05:00:08;100155.44;;;3.92;100.00
8641;BME280;4358;42.100;25.222;2023-02-23T05:02:36;100157.88;;;3.72;100.00
8641;BME280;4358;42.100;25.222;2023-02-23T05:05:04;100172.47;;;3.56;100.00
8641;BME280;4358;42.100;25.222;2023-02-23T05:07:31;100172.88;;;3.44;100.00
8641;BME280;4358;42.100;25.222;2023-02-23T05:09:59;100178.00;;;3.47;100.00
8641;BME280;4358;42.100;25.222;2023-02-23T05:12:26;100179.28;;;3.35;100.00
8641;BME280;4358;42.100;25.222;2023-02-23T05:14:53;100177.59;;;3.34;100.00
8641;BME280;4358;42.100;25.222;2023-02-23T05:17:20;100174.69;;;3.41;100.00
8641;BME280;4358;42.100;25.222;2023-02-23T05:19:47;100181.25;;;3.55;100.00
8641;BME280;4358;42.100;25.222;2023-02-23T05:22:14;100188.91;;;3.61;100.00
8641;BME280;4358;42.100;25.222;2023-02-23T05:24:41;100181.19;;;3.56;100.00
8641;BME280;4358;42.100;25.222;2023-02-23T05:27:10;100189.63;;;3.66;100.00
8641;BME280;4358;42.100;25.222;2023-02-23T05:29:38;100193.72;;;3.73;100.00
8641;BME280;4358;42.100;25.222;2023-02-23T05:32:05;100192.72;;;3.77;100.00
8641;BME280;4358;42.100;25.222;2023-02-23T05:34:32;100192.41;;;3.86;100.00
8641;BME280;4358;42.100;25.222;2023-02-23T05:36:58;100194.91;;;3.89;100.00
8641;BME280;4358;42.100;25.222;2023-02-23T05:39:25;100201.63;;;3.98;100.00
8641;BME280;4358;42.100;25.222;2023-02-23T05:41:52;100199.97;;;3.95;100.00
8641;BME280;4358;42.100;25.222;2023-02-23T05:44:20;100215.72;;;3.95;100.00
8641;BME280;4358;42.100;25.222;2023-02-23T05:46:47;100211.28;;;3.97;100.00
8641;BME280;4358;42.100;25.222;2023-02-23T05:49:14;100233.88;;;4.01;100.00
8641;BME280;4358;42.100;25.222;2023-02-23T05:51:41;100214.69;;;3.99;100.00
8641;BME280;4358;42.100;25.222;2023-02-23T05:54:08;100235.66;;;4.01;100.00
8641;BME280;4358;42.100;25.222;2023-02-23T05:56:35;100245.88;;;4.08;100.00
8641;BME280;4358;42.100;25.222;2023-02-23T05:59:02;100249.44;;;4.07;100.00
8641;BME280;4358;42.100;25.222;2023-02-23T06:01:31;100244.75;;;4.15;100.00
8641;BME280;4358;42.100;25.222;2023-02-23T06:03:58;100243.63;;;4.22;100.00
8641;BME280;4358;42.100;25.222;2023-02-23T06:06:24;100238.03;;;4.32;100.00
8641;BME280;4358;42.100;25.222;2023-02-23T06:08:52;100240.25;;;4.44;100.00
8641;BME280;4358;42.100;25.222;2023-02-23T06:11:19;100242.06;;;4.65;100.00
8641;BME280;4358;42.100;25.222;2023-02-23T06:13:46;100248.53;;;4.80;100.00
8641;BME280;4358;42.100;25.222;2023-02-23T06:16:14;100248.78;;;4.95;100.00
8641;BME280;4358;42.100;25.222;2023-02-23T06:18:42;100252.53;;;5.11;100.00
8641;BME280;4358;42.100;25.222;2023-02-23T06:21:09;100251.69;;;5.11;100.00
8641;BME280;4358;42.100;25.222;2023-02-23T06:23:36;100252.31;;;5.18;100.00
8641;BME280;4358;42.100;25.222;2023-02-23T06:26:03;100253.41;;;5.12;100.00
8641;BME280;4358;42.100;25.222;2023-02-23T06:28:30;100258.31;;;5.21;100.00
8641;BME280;4358;42.100;25.222;2023-02-23T06:30:57;100255.25;;;5.32;100.00
8641;BME280;4358;42.100;25.222;2023-02-23T06:33:24;100262.16;;;5.56;100.00
8641;BME280;4358;42.100;25.222;2023-02-23T06:35:53;100275.34;;;5.76;100.00
8641;BME280;4358;42.100;25.222;2023-02-23T06:38:20;100272.66;;;6.00;100.00
8641;BME280;4358;42.100;25.222;2023-02-23T06:40:48;100274.22;;;6.24;100.00
8641;BME280;4358;42.100;25.222;2023-02-23T06:43:15;100270.81;;;6.42;100.00
8641;BME280;4358;42.100;25.222;2023-02-23T06:45:42;100274.06;;;6.67;100.00
8641;BME280;4358;42.100;25.222;2023-02-23T06:48:08;100273.94;;;6.89;100.00
8641;BME280;4358;42.100;25.222;2023-02-23T06:50:35;100268.53;;;7.11;100.00
8641;BME280;4358;42.100;25.222;2023-02-23T06:53:03;100275.44;;;7.32;100.00
8641;BME280;4358;42.100;25.222;2023-02-23T06:55:30;100275.63;;;7.46;100.00
8641;BME280;4358;42.100;25.222;2023-02-23T06:57:57;100273.03;;;7.63;100.00
8641;BME280;4358;42.100;25.222;2023-02-23T07:00:24;100272.88;;;7.84;100.00
8641;BME280;4358;42.100;25.222;2023-02-23T07:02:51;100271.19;;;8.00;100.00
8641;BME280;4358;42.100;25.222;2023-02-23T07:05:18;100277.25;;;8.19;100.00
8641;BME280;4358;42.100;25.222;2023-02-23T07:07:45;100275.56;;;8.35;100.00
8641;BME280;4358;42.100;25.222;2023-02-23T07:10:13;100277.22;;;8.54;100.00
8641;BME280;4358;42.100;25.222;2023-02-23T07:12:40;100274.72;;;8.68;100.00
8641;BME280;4358;42.100;25.222;2023-02-23T07:15:08;100271.25;;;8.83;100.00
8641;BME280;4358;42.100;25.222;2023-02-23T07:17:35;100275.72;;;8.98;100.00
8641;BME280;4358;42.100;25.222;2023-02-23T07:20:03;100273.16;;;9.12;100.00
8641;BME280;4358;42.100;25.222;2023-02-23T07:22:30;100280.25;;;9.27;100.00
8641;BME280;4358;42.100;25.222;2023-02-23T07:24:58;100283.34;;;9.35;100.00
8641;BME280;4358;42.100;25.222;2023-02-23T07:27:27;100269.16;;;9.37;100.00
8641;BME280;4358;42.100;25.222;2023-02-23T07:29:54;100286.25;;;9.47;100.00
8641;BME280;4358;42.100;25.222;2023-02-23T07:32:21;100277.44;;;9.62;100.00
8641;BME280;4358;42.100;25.222;2023-02-23T07:34:48;100281.06;;;9.75;100.00
8641;BME280;4358;42.100;25.222;2023-02-23T07:37:15;100287.16;;;9.77;100.00
8641;BME280;4358;42.100;25.222;2023-02-23T07:39:42;100286.84;;;9.97;100.00
8641;BME280;4358;42.100;25.222;2023-02-23T07:42:09;100286.22;;;10.08;100.00
8641;BME280;4358;42.100;25.222;2023-02-23T07:44:37;100286.84;;;9.97;100.00
8641;BME280;4358;42.100;25.222;2023-02-23T07:47:04;100284.88;;;9.85;100.00
8641;BME280;4358;42.100;25.222;2023-02-23T07:49:31;100285.31;;;9.93;100.00
8641;BME280;4358;42.100;25.222;2023-02-23T07:51:59;100286.13;;;10.09;100.00
8641;BME280;4358;42.100;25.222;2023-02-23T07:54:26;100274.16;;;10.02;100.00
8641;BME280;4358;42.100;25.222;2023-02-23T07:56:53;100281.66;;;10.26;100.00
8641;BME280;4358;42.100;25.222;2023-02-23T07:59:20;100284.81;;;10.46;100.00
8641;BME280;4358;42.100;25.222;2023-02-23T08:01:48;100282.47;;;10.56;100.00
8641;BME280;4358;42.100;25.222;2023-02-23T08:04:16;100290.81;;;10.64;100.00
8641;BME280;4358;42.100;25.222;2023-02-23T08:06:43;100282.47;;;10.70;100.00
8641;BME280;4358;42.100;25.222;2023-02-23T08:09:10;100295.19;;;10.93;100.00
8641;BME280;4358;42.100;25.222;2023-02-23T08:11:37;100295.56;;;11.01;100.00
8641;BME280;4358;42.100;25.222;2023-02-23T08:14:04;100285.66;;;11.18;100.00
8641;BME280;4358;42.100;25.222;2023-02-23T08:16:32;100293.84;;;11.15;100.00
8641;BME280;4358;42.100;25.222;2023-02-23T08:19:00;100296.00;;;11.22;100.00
8641;BME280;4358;42.100;25.222;2023-02-23T08:21:27;100290.19;;;11.44;100.00
8641;BME280;4358;42.100;25.222;2023-02-23T08:23:54;100283.16;;;11.43;100.00
8641;BME280;4358;42.100;25.222;2023-02-23T08:26:21;100289.25;;;11.31;100.00
8641;BME280;4358;42.100;25.222;2023-02-23T08:28:50;100284.50;;;11.22;100.00
8641;BME280;4358;42.100;25.222;2023-02-23T08:31:17;100287.13;;;11.36;100.00
8641;BME280;4358;42.100;25.222;2023-02-23T08:33:46;100280.88;;;11.51;100.00
8641;BME280;4358;42.100;25.222;2023-02-23T08:36:14;100281.97;;;11.61;100.00
8641;BME280;4358;42.100;25.222;2023-02-23T08:38:41;100286.44;;;11.61;100.00
8641;BME280;4358;42.100;25.222;2023-02-23T08:41:08;100282.19;;;11.44;100.00
8641;BME280;4358;42.100;25.222;2023-02-23T08:43:34;100282.69;;;11.63;100.00
8641;BME280;4358;42.100;25.222;2023-02-23T08:46:04;100278.53;;;11.59;100.00
8641;BME280;4358;42.100;25.222;2023-02-23T08:48:31;100278.53;;;11.59;100.00
8641;BME280;4358;42.100;25.222;2023-02-23T08:50:58;100276.53;;;11.77;100.00
8641;BME280;4358;42.100;25.222;2023-02-23T08:53:27;100281.56;;;11.94;100.00
8641;BME280;4358;42.100;25.222;2023-02-23T08:55:56;100276.59;;;12.02;100.00
8641;BME280;4358;42.100;25.222;2023-02-23T08:58:23;100277.78;;;12.11;100.00
8641;BME280;4358;42.100;25.222;2023-02-23T09:00:50;100281.53;;;12.21;99.84
8641;BME280;4358;42.100;25.222;2023-02-23T09:03:18;100277.28;;;12.18;100.00
8641;BME280;4358;42.100;25.222;2023-02-23T09:05:45;100277.09;;;11.95;100.00
8641;BME280;4358;42.100;25.222;2023-02-23T09:08:12;100281.88;;;11.89;100.00
8641;BME280;4358;42.100;25.222;2023-02-23T09:10:41;100269.88;;;11.97;100.00
8641;BME280;4358;42.100;25.222;2023-02-23T09:13:09;100275.97;;;12.11;100.00
8641;BME280;4358;42.100;25.222;2023-02-23T09:15:36;100279.41;;;12.26;100.00
8641;BME280;4358;42.100;25.222;2023-02-23T09:18:04;100273.78;;;12.43;99.40
8641;BME280;4358;42.100;25.222;2023-02-23T09:20:32;100272.63;;;12.60;98.80
8641;BME280;4358;42.100;25.222;2023-02-23T09:22:59;100271.97;;;12.56;98.00
8641;BME280;4358;42.100;25.222;2023-02-23T09:25:26;100277.53;;;12.53;98.40
8641;BME280;4358;42.100;25.222;2023-02-23T09:27:55;100277.00;;;12.48;99.58
8641;BME280;4358;42.100;25.222;2023-02-23T09:30:24;100273.47;;;12.73;99.05
8641;BME280;4358;42.100;25.222;2023-02-23T09:32:53;100266.00;;;12.91;97.68
8641;BME280;4358;42.100;25.222;2023-02-23T09:35:23;100268.09;;;12.98;96.70
8641;BME280;4358;42.100;25.222;2023-02-23T09:37:51;100268.16;;;12.86;96.48
8641;BME280;4358;42.100;25.222;2023-02-23T09:40:22;100279.22;;;12.92;96.17
8641;BME280;4358;42.100;25.222;2023-02-23T09:42:58;100267.50;;;12.95;96.71
8641;BME280;4358;42.100;25.222;2023-02-23T09:45:33;100274.09;;;13.14;96.64
8641;BME280;4358;42.100;25.222;2023-02-23T09:48:12;100263.69;;;12.86;97.34
8641;BME280;4358;42.100;25.222;2023-02-23T09:50:42;100266.97;;;12.90;98.07
8641;BME280;4358;42.100;25.222;2023-02-23T09:53:19;100261.53;;;12.79;97.50
8641;BME280;4358;42.100;25.222;2023-02-23T09:55:50;100261.09;;;12.85;98.84
8641;BME280;4358;42.100;25.222;2023-02-23T09:58:22;100258.63;;;12.94;100.00
8641;BME280;4358;42.100;25.222;2023-02-23T10:01:13;100255.38;;;12.65;100.00
8641;BME280;4358;42.100;25.222;2023-02-23T10:03:49;100265.16;;;12.78;100.00
8641;BME280;4358;42.100;25.222;2023-02-23T10:06:18;100260.25;;;12.84;100.00
8641;BME280;4358;42.100;25.222;2023-02-23T10:08:53;100252.16;;;12.86;100.00
8641;BME280;4358;42.100;25.222;2023-02-23T10:11:26;100244.03;;;13.00;100.00
8641;BME280;4358;42.100;25.222;2023-02-23T10:14:03;100251.78;;;13.28;100.00
8641;BME280;4358;42.100;25.222;2023-02-23T10:16:42;100254.44;;;13.28;100.00
8641;BME280;4358;42.100;25.222;2023-02-23T10:19:19;100259.19;;;13.12;100.00
8641;BME280;4358;42.100;25.222;2023-02-23T10:21:53;100252.25;;;12.97;100.00
8641;BME280;4358;42.100;25.222;2023-02-23T10:24:24;100249.75;;;13.19;100.00
8641;BME280;4358;42.100;25.222;2023-02-23T10:26:56;100255.69;;;13.35;100.00
8641;BME280;4358;42.100;25.222;2023-02-23T10:29:29;100253.41;;;13.18;100.00
8641;BME280;4358;42.100;25.222;2023-02-23T10:31:59;100251.91;;;13.14;100.00
8641;BME280;4358;42.100;25.222;2023-02-23T10:34:28;100243.34;;;13.34;100.00
8641;BME280;4358;42.100;25.222;2023-02-23T10:36:58;100243.34;;;13.34;100.00
8641;BME280;4358;42.100;25.222;2023-02-23T10:39:27;100245.94;;;13.23;100.00
8641;BME280;4358;42.100;25.222;2023-02-23T10:41:57;100235.66;;;13.30;100.00
8641;BME280;4358;42.100;25.222;2023-02-23T10:44:28;100237.59;;;13.28;100.00
8641;BME280;4358;42.100;25.222;2023-02-23T10:46:58;100225.91;;;13.18;100.00
8641;BME280;4358;42.100;25.222;2023-02-23T10:49:38;100238.22;;;13.31;100.00
8641;BME280;4358;42.100;25.222;2023-02-23T10:52:09;100228.53;;;13.30;100.00
8641;BME280;4358;42.100;25.222;2023-02-23T10:54:43;100233.56;;;13.22;100.00
8641;BME280;4358;42.100;25.222;2023-02-23T10:57:19;100237.63;;;13.15;100.00
8641;BME280;4358;42.100;25.222;2023-02-23T11:02:51;100220.38;;;13.08;100.00
8641;BME280;4358;42.100;25.222;2023-02-23T11:05:34;100227.44;;;12.96;100.00
8641;BME280;4358;42.100;25.222;2023-02-23T11:08:18;100229.75;;;12.88;100.00
8641;BME280;4358;42.100;25.222;2023-02-23T11:11:04;100234.03;;;12.91;100.00
8641;BME280;4358;42.100;25.222;2023-02-23T11:13:37;100238.22;;;12.69;100.00
8641;BME280;4358;42.100;25.222;2023-02-23T11:16:09;100223.81;;;12.85;100.00
8641;BME280;4358;42.100;25.222;2023-02-23T11:18:39;100227.25;;;12.87;100.00
8641;BME280;4358;42.100;25.222;2023-02-23T11:21:12;100220.00;;;12.63;100.00
8641;BME280;4358;42.100;25.222;2023-02-23T11:23:39;100226.63;;;12.70;100.00
8641;BME280;4358;42.100;25.222;2023-02-23T11:26:20;100218.59;;;12.83;100.00
8641;BME280;4358;42.100;25.222;2023-02-23T11:28:51;100228.09;;;12.74;100.00
8641;BME280;4358;42.100;25.222;2023-02-23T11:31:22;100223.09;;;12.57;100.00
8641;BME280;4358;42.100;25.222;2023-02-23T11:33:54;100222.38;;;12.55;100.00
8641;BME280;4358;42.100;25.222;2023-02-23T11:36:26;100226.63;;;12.58;100.00
8641;BME280;4358;42.100;25.222;2023-02-23T11:39:04;100219.81;;;12.66;100.00
8641;BME280;4358;42.100;25.222;2023-02-23T11:41:33;100220.25;;;12.60;100.00
8641;BME280;4358;42.100;25.222;2023-02-23T11:44:02;100220.13;;;12.49;100.00
8641;BME280;4358;42.100;25.222;2023-02-23T11:46:31;100218.97;;;12.28;100.00
8641;BME280;4358;42.100;25.222;2023-02-23T11:49:00;100213.81;;;12.25;100.00
8641;BME280;4358;42.100;25.222;2023-02-23T11:51:30;100218.72;;;12.31;100.00
8641;BME280;4358;42.100;25.222;2023-02-23T11:53:59;100216.41;;;12.39;100.00
8641;BME280;4358;42.100;25.222;2023-02-23T11:56:28;100217.91;;;12.43;100.00
8641;BME280;4358;42.100;25.222;2023-02-23T11:58:59;100225.13;;;12.66;100.00
8641;BME280;4358;42.100;25.222;2023-02-23T12:01:37;100215.53;;;12.77;100.00
8641;BME280;4358;42.100;25.222;2023-02-23T12:04:09;100211.50;;;12.71;100.00
8641;BME280;4358;42.100;25.222;2023-02-23T12:06:48;100221.31;;;12.45;100.00
8641;BME280;4358;42.100;25.222;2023-02-23T12:09:20;100222.78;;;12.24;100.00
8641;BME280;4358;42.100;25.222;2023-02-23T12:11:51;100220.66;;;12.42;100.00
8641;BME280;4358;42.100;25.222;2023-02-23T12:14:28;100223.66;;;12.50;100.00
8641;BME280;4358;42.100;25.222;2023-02-23T12:17:01;100221.06;;;12.73;100.00
8641;BME280;4358;42.100;25.222;2023-02-23T12:19:32;100224.66;;;12.98;100.00
8641;BME280;4358;42.100;25.222;2023-02-23T12:22:06;100225.28;;;13.01;100.00
8641;BME280;4358;42.100;25.222;2023-02-23T12:24:45;100227.09;;;13.01;100.00
8641;BME280;4358;42.100;25.222;2023-02-23T12:27:17;100229.19;;;13.08;100.00
8641;BME280;4358;42.100;25.222;2023-02-23T12:30:03;100221.91;;;12.87;100.00
8641;BME280;4358;42.100;25.222;2023-02-23T12:32:44;100218.50;;;12.72;100.00
8641;BME280;4358;42.100;25.222;2023-02-23T12:35:15;100236.41;;;12.70;100.00
8641;BME280;4358;42.100;25.222;2023-02-23T12:37:47;100236.00;;;12.63;100.00
8641;BME280;4358;42.100;25.222;2023-02-23T12:40:19;100242.25;;;12.62;100.00
8641;BME280;4358;42.100;25.222;2023-02-23T12:42:55;100240.47;;;12.50;100.00
8641;BME280;4358;42.100;25.222;2023-02-23T12:45:30;100235.78;;;12.54;100.00
8641;BME280;4358;42.100;25.222;2023-02-23T12:48:05;100235.56;;;12.57;100.00
8641;BME280;4358;42.100;25.222;2023-02-23T12:50:38;100241.34;;;12.51;100.00
8641;BME280;4358;42.100;25.222;2023-02-23T12:53:17;100238.97;;;12.46;100.00
8641;BME280;4358;42.100;25.222;2023-02-23T12:55:53;100235.56;;;12.44;100.00
8641;BME280;4358;42.100;25.222;2023-02-23T12:58:33;100234.94;;;12.53;100.00
8641;BME280;4358;42.100;25.222;2023-02-23T13:01:03;100236.84;;;12.64;100.00
8641;BME280;4358;42.100;25.222;2023-02-23T13:04:11;100238.22;;;12.69;100.00
8641;BME280;4358;42.100;25.222;2023-02-23T13:06:53;100238.56;;;12.65;100.00
8641;BME280;4358;42.100;25.222;2023-02-23T13:09:39;100228.53;;;12.68;100.00
8641;BME280;4358;42.100;25.222;2023-02-23T13:12:24;100232.91;;;12.69;100.00
8641;BME280;4358;42.100;25.222;2023-02-23T13:15:01;100233.00;;;12.81;100.00
8641;BME280;4358;42.100;25.222;2023-02-23T13:17:39;100227.34;;;12.85;100.00
8641;BME280;4358;42.100;25.222;2023-02-23T13:20:17;100233.53;;;12.86;100.00
8641;BME280;4358;42.100;25.222;2023-02-23T13:22:55;100227.44;;;12.84;100.00
8641;BME280;4358;42.100;25.222;2023-02-23T13:25:32;100225.97;;;12.80;100.00
8641;BME280;4358;42.100;25.222;2023-02-23T13:28:02;100233.88;;;12.56;100.00
8641;BME280;4358;42.100;25.222;2023-02-23T13:30:30;100231.28;;;12.42;100.00
8641;BME280;4358;42.100;25.222;2023-02-23T13:32:58;100232.16;;;12.42;100.00
8641;BME280;4358;42.100;25.222;2023-02-23T13:35:30;100222.25;;;12.44;100.00